Terminal Aerodrome Forecast
Issued by NWS

Home | Current Version | Previous Version | Text Only | Print | Product List | Glossary On
Versions: 1 2 3 4 5 6 7 8 9 10 11 12 13 14 15 16
000
FTUS44 KLZK 261157 CCA
TAFHOT
TAF COR
KHOT 261157Z 2612/2712 17006KT P6SM BKN020 WS020/22045KT
     FM261700 21010G20KT P6SM BKN030
     FM270100 22007KT P6SM BKN025 OVC050
     FM271000 20005KT 5SM BR BKN007 OVC015=

USA.gov is the U.S. government's official web portal to all federal, state and local government web resources and services.